createdAt,value
2022-12-31T00:02:19.799Z,0.28
2022-12-31T00:04:46.225Z,0.30
2022-12-31T00:07:12.671Z,0.30
2022-12-31T00:09:39.024Z,0.20
2022-12-31T00:12:05.510Z,0.20
2022-12-31T00:14:31.870Z,0.30
2022-12-31T00:16:58.327Z,0.30
2022-12-31T00:19:24.714Z,0.30
2022-12-31T00:21:51.048Z,0.30
2022-12-31T00:24:17.460Z,0.30
2022-12-31T00:26:43.819Z,0.17
2022-12-31T00:29:10.154Z,0.28
2022-12-31T00:31:38.232Z,0.22
2022-12-31T00:34:05.198Z,0.30
2022-12-31T00:36:32.616Z,0.30
2022-12-31T00:38:59.721Z,0.20
2022-12-31T00:41:26.851Z,0.30
2022-12-31T00:43:53.312Z,0.20
2022-12-31T00:46:20.314Z,0.30
2022-12-31T00:48:46.891Z,0.30
2022-12-31T00:51:14.339Z,0.20
2022-12-31T00:53:42.246Z,0.30
2022-12-31T00:56:13.161Z,0.30
2022-12-31T00:58:39.529Z,0.30
2022-12-31T01:01:10.647Z,0.22
2022-12-31T01:03:37.340Z,0.20
2022-12-31T01:06:04.137Z,0.20
2022-12-31T01:08:30.493Z,0.38
2022-12-31T01:11:15.564Z,0.25
2022-12-31T01:13:41.964Z,0.20
2022-12-31T01:16:09.408Z,0.20
2022-12-31T01:18:35.867Z,0.30
2022-12-31T01:21:03.450Z,0.20
2022-12-31T01:23:30.133Z,0.30
2022-12-31T01:25:56.749Z,0.25
2022-12-31T01:28:23.076Z,0.20
2022-12-31T01:30:49.608Z,0.20
2022-12-31T01:33:15.962Z,0.17
2022-12-31T01:35:42.410Z,0.10
2022-12-31T01:38:08.783Z,0.30
2022-12-31T01:40:39.695Z,0.20
2022-12-31T01:43:17.099Z,0.20
2022-12-31T01:45:47.377Z,0.17
2022-12-31T01:48:15.150Z,0.10
2022-12-31T01:50:43.016Z,0.20
2022-12-31T01:53:10.547Z,0.10
2022-12-31T01:55:40.573Z,0.30
2022-12-31T01:58:10.975Z,0.30
2022-12-31T02:00:37.604Z,0.22
2022-12-31T02:03:05.443Z,0.30
2022-12-31T02:05:36.711Z,0.30
2022-12-31T02:08:05.806Z,0.30
2022-12-31T02:10:32.313Z,0.20
2022-12-31T02:12:59.168Z,0.30
2022-12-31T02:15:38.652Z,0.10
2022-12-31T02:18:11.161Z,0.20
2022-12-31T02:20:52.520Z,0.20
2022-12-31T02:23:18.865Z,0.20
2022-12-31T02:25:48.370Z,0.20
2022-12-31T02:28:33.609Z,0.30
2022-12-31T02:31:20.281Z,0.10
2022-12-31T02:33:56.419Z,0.10
2022-12-31T02:36:25.385Z,0.10
2022-12-31T02:38:52.466Z,0.30
2022-12-31T02:41:38.623Z,0.20
2022-12-31T02:44:26.806Z,0.20
2022-12-31T02:46:53.228Z,0.10
2022-12-31T02:49:39.910Z,0.20
2022-12-31T02:52:09.031Z,0.10
2022-12-31T02:54:53.834Z,0.20
2022-12-31T02:57:46.568Z,0.10
2022-12-31T03:00:33.692Z,0.20
2022-12-31T03:03:01.186Z,0.10
2022-12-31T03:05:29.570Z,0.20
2022-12-31T03:07:56.262Z,0.10
2022-12-31T03:10:22.631Z,0.20
2022-12-31T03:12:49.801Z,0.10
2022-12-31T03:15:24.293Z,0.20
2022-12-31T03:17:53.433Z,0.17
2022-12-31T03:20:40.315Z,0.10
2022-12-31T03:23:08.220Z,0.10
2022-12-31T03:25:43.716Z,0.10
2022-12-31T03:28:14.869Z,0.10
2022-12-31T03:30:42.551Z,0.20
2022-12-31T03:33:09.402Z,0.10
2022-12-31T03:35:37.170Z,0.20
2022-12-31T03:38:04.170Z,0.13
2022-12-31T03:40:31.685Z,0.20
2022-12-31T03:42:59.275Z,0.10
2022-12-31T03:45:25.973Z,0.30
2022-12-31T03:47:52.446Z,0.15
2022-12-31T03:50:19.053Z,0.30
2022-12-31T03:52:45.886Z,0.20
2022-12-31T03:55:12.834Z,0.20
2022-12-31T03:57:39.292Z,0.20
2022-12-31T04:00:07.145Z,0.20
2022-12-31T04:02:33.551Z,0.10
2022-12-31T04:04:59.918Z,0.20
2022-12-31T04:07:26.406Z,0.20
2022-12-31T04:09:53.876Z,0.28
2022-12-31T04:12:20.288Z,0.20
2022-12-31T04:14:46.692Z,0.10
2022-12-31T04:17:13.126Z,0.20
2022-12-31T04:19:39.509Z,0.20
2022-12-31T04:22:06.136Z,0.20
2022-12-31T04:24:32.542Z,0.20
2022-12-31T04:27:05.334Z,0.20
2022-12-31T04:29:33.779Z,0.10
2022-12-31T04:32:00.293Z,0.10
2022-12-31T04:34:26.737Z,0.17
2022-12-31T04:36:53.136Z,0.17
2022-12-31T04:39:19.542Z,0.20
2022-12-31T04:41:45.950Z,0.10
2022-12-31T04:44:12.501Z,0.10
2022-12-31T04:46:39.178Z,0.10
2022-12-31T04:49:05.608Z,0.20
2022-12-31T04:51:32.029Z,0.20
2022-12-31T04:53:58.591Z,0.20
2022-12-31T04:56:25.506Z,0.20
2022-12-31T04:58:52.045Z,0.10
2022-12-31T05:01:18.523Z,0.20
2022-12-31T05:03:45.059Z,0.10
2022-12-31T05:06:13.242Z,0.20
2022-12-31T05:08:39.732Z,0.10
2022-12-31T05:11:06.218Z,0.10
2022-12-31T05:13:33.659Z,0.20
2022-12-31T05:16:00.940Z,0.10
2022-12-31T05:18:27.613Z,0.20
2022-12-31T05:20:53.988Z,0.10
2022-12-31T05:23:20.499Z,0.10
2022-12-31T05:25:47.583Z,0.20
2022-12-31T05:28:14.544Z,0.25
2022-12-31T05:30:41.482Z,0.20
2022-12-31T05:33:08.100Z,0.15
2022-12-31T05:35:34.513Z,0.20
2022-12-31T05:38:01.093Z,0.20
2022-12-31T05:40:28.375Z,0.20
2022-12-31T05:42:55.007Z,0.20
2022-12-31T05:45:25.315Z,0.10
2022-12-31T05:47:56.591Z,0.20
2022-12-31T05:50:23.007Z,0.30
2022-12-31T05:52:49.346Z,0.20
2022-12-31T05:55:15.846Z,0.30
2022-12-31T05:57:42.255Z,0.20
2022-12-31T06:00:09.679Z,0.30
2022-12-31T06:02:36.231Z,0.30
2022-12-31T06:05:02.758Z,0.32
2022-12-31T06:07:29.255Z,0.22
2022-12-31T06:09:55.645Z,0.43
2022-12-31T06:12:22.063Z,0.38
2022-12-31T06:14:48.480Z,0.40
2022-12-31T06:17:14.994Z,0.40
2022-12-31T06:19:41.358Z,0.30
2022-12-31T06:22:07.688Z,0.30
2022-12-31T06:24:34.145Z,0.35
2022-12-31T06:27:00.533Z,0.30
2022-12-31T06:29:26.890Z,0.30
2022-12-31T06:31:53.323Z,0.32
2022-12-31T06:34:19.807Z,0.40
2022-12-31T06:36:46.177Z,0.30
2022-12-31T06:39:12.564Z,0.40
2022-12-31T06:41:39.035Z,0.50
2022-12-31T06:44:05.645Z,0.57
2022-12-31T06:46:32.097Z,0.40
2022-12-31T06:48:58.499Z,0.40
2022-12-31T06:51:24.926Z,0.20
2022-12-31T06:53:51.923Z,0.70
2022-12-31T06:56:33.941Z,0.35
2022-12-31T06:59:00.896Z,0.38
2022-12-31T07:01:30.641Z,0.47
2022-12-31T07:04:03.261Z,0.32
2022-12-31T07:06:29.567Z,0.32
2022-12-31T07:08:55.864Z,0.40
2022-12-31T07:11:23.614Z,0.40
2022-12-31T07:13:53.003Z,0.30
2022-12-31T07:16:19.354Z,0.32
2022-12-31T07:19:05.095Z,0.30
2022-12-31T07:21:36.627Z,0.40
2022-12-31T07:24:03.209Z,0.40
2022-12-31T07:26:57.297Z,0.40
2022-12-31T07:29:38.935Z,0.30
2022-12-31T07:32:37.616Z,0.40
2022-12-31T07:35:04.343Z,1.50
2022-12-31T07:37:30.658Z,0.30
2022-12-31T07:40:03.210Z,0.65
2022-12-31T07:42:35.577Z,0.50
2022-12-31T07:45:16.732Z,0.40
2022-12-31T07:47:43.497Z,0.55
2022-12-31T07:50:17.024Z,0.40
2022-12-31T07:52:44.089Z,0.32
2022-12-31T07:55:11.144Z,0.50
2022-12-31T07:57:59.457Z,0.43
2022-12-31T08:00:26.049Z,0.40
2022-12-31T08:03:17.214Z,0.50
2022-12-31T08:05:43.639Z,0.30
2022-12-31T08:08:22.431Z,0.38
2022-12-31T08:10:59.242Z,0.50
2022-12-31T08:13:25.690Z,0.60
2022-12-31T08:15:52.225Z,0.40
2022-12-31T08:18:18.872Z,0.60
2022-12-31T08:21:00.381Z,0.50
2022-12-31T08:23:36.752Z,0.50
2022-12-31T08:26:18.661Z,0.43
2022-12-31T08:28:56.713Z,0.35
2022-12-31T08:31:33.703Z,0.50
2022-12-31T08:34:18.525Z,0.50
2022-12-31T08:36:52.403Z,0.40
2022-12-31T08:39:25.517Z,0.60
2022-12-31T08:41:54.336Z,0.40
2022-12-31T08:44:26.664Z,0.40
2022-12-31T08:46:57.510Z,0.40
2022-12-31T08:49:27.123Z,0.50
2022-12-31T08:51:53.580Z,0.47
2022-12-31T08:54:21.136Z,0.50
2022-12-31T08:57:00.658Z,0.52
2022-12-31T08:59:35.484Z,0.50
2022-12-31T09:02:01.895Z,0.53
2022-12-31T09:04:43.638Z,0.40
2022-12-31T09:07:11.912Z,0.50
2022-12-31T09:09:57.194Z,0.50
2022-12-31T09:12:30.937Z,0.70
2022-12-31T09:15:03.206Z,0.60
2022-12-31T09:17:44.989Z,0.38
2022-12-31T09:20:21.285Z,0.40
2022-12-31T09:22:47.964Z,0.40
2022-12-31T09:25:15.520Z,0.60
2022-12-31T09:28:14.409Z,0.55
2022-12-31T09:30:46.943Z,0.45
2022-12-31T09:33:32.550Z,0.47
2022-12-31T09:36:02.127Z,0.70
2022-12-31T09:38:43.857Z,0.38
2022-12-31T09:41:16.200Z,0.70
2022-12-31T09:43:48.619Z,0.40
2022-12-31T09:46:24.387Z,0.50
2022-12-31T09:49:01.181Z,0.40
2022-12-31T09:51:32.010Z,0.50
2022-12-31T09:54:13.436Z,0.50
2022-12-31T09:56:43.335Z,0.50
2022-12-31T09:59:18.959Z,0.47
2022-12-31T10:04:30.544Z,0.50
2022-12-31T10:06:59.993Z,0.47
2022-12-31T10:09:39.269Z,0.40
2022-12-31T10:12:24.770Z,0.40
2022-12-31T10:15:09.429Z,0.45
2022-12-31T10:17:53.304Z,0.52
2022-12-31T10:20:22.522Z,0.40
2022-12-31T10:22:49.504Z,0.50
2022-12-31T10:25:37.979Z,0.50
2022-12-31T10:28:18.912Z,0.45
2022-12-31T10:30:50.764Z,0.50
2022-12-31T10:33:18.188Z,0.50
2022-12-31T10:35:50.826Z,0.63
2022-12-31T10:38:23.157Z,0.50
2022-12-31T10:40:49.533Z,0.43
2022-12-31T10:43:34.971Z,0.40
2022-12-31T10:46:26.838Z,0.43
2022-12-31T10:49:02.098Z,0.60
2022-12-31T10:51:28.423Z,0.70
2022-12-31T10:54:13.621Z,0.50
2022-12-31T10:57:15.578Z,0.60
2022-12-31T11:00:00.689Z,0.70
2022-12-31T11:02:32.968Z,0.70
2022-12-31T11:05:18.042Z,0.52
2022-12-31T11:07:44.413Z,0.70
2022-12-31T11:10:10.836Z,0.52
2022-12-31T11:12:43.029Z,0.60
2022-12-31T11:15:31.398Z,0.50
2022-12-31T11:18:10.013Z,0.50
2022-12-31T11:20:56.230Z,0.40
2022-12-31T11:23:45.650Z,0.63
2022-12-31T11:26:31.045Z,0.47
2022-12-31T11:29:03.810Z,0.50
2022-12-31T11:31:40.611Z,0.50
2022-12-31T11:34:25.866Z,0.50
2022-12-31T11:37:11.023Z,0.50
2022-12-31T11:39:43.580Z,0.40
2022-12-31T11:42:21.979Z,0.70
2022-12-31T11:45:01.207Z,0.60
2022-12-31T11:47:27.553Z,0.45
2022-12-31T11:50:12.759Z,0.50
2022-12-31T11:52:59.878Z,0.50
2022-12-31T11:55:32.259Z,0.60
2022-12-31T11:58:01.865Z,0.50
2022-12-31T12:00:30.270Z,0.30
2022-12-31T12:03:01.974Z,0.40
2022-12-31T12:05:28.430Z,0.50
2022-12-31T12:07:55.137Z,0.47
2022-12-31T12:10:22.222Z,0.50
2022-12-31T12:12:48.622Z,0.77
2022-12-31T12:15:21.012Z,0.50
2022-12-31T12:17:50.049Z,0.50
2022-12-31T12:20:18.528Z,0.60
2022-12-31T12:22:52.346Z,0.70
2022-12-31T12:25:20.658Z,0.43
2022-12-31T12:27:47.036Z,0.70
2022-12-31T12:30:27.698Z,0.50
2022-12-31T12:32:54.040Z,0.50
2022-12-31T12:35:24.831Z,0.60
2022-12-31T12:37:58.832Z,0.45
2022-12-31T12:40:33.097Z,0.52
2022-12-31T12:43:00.457Z,0.50
2022-12-31T12:45:29.014Z,0.40
2022-12-31T12:48:03.018Z,0.63
2022-12-31T12:50:38.384Z,0.70
2022-12-31T12:53:04.759Z,0.50
2022-12-31T12:55:52.504Z,0.60
2022-12-31T12:58:37.407Z,0.47
2022-12-31T13:01:34.909Z,0.55
2022-12-31T13:04:35.807Z,0.40
2022-12-31T13:07:10.819Z,0.47
2022-12-31T13:09:56.150Z,0.60
2022-12-31T13:13:13.653Z,0.60
2022-12-31T13:15:29.680Z,0.47
2022-12-31T13:18:01.267Z,0.73
2022-12-31T13:20:46.749Z,0.60
2022-12-31T13:23:21.434Z,0.60
2022-12-31T13:26:06.830Z,0.68
2022-12-31T13:28:34.079Z,0.60
2022-12-31T13:31:06.812Z,0.73
2022-12-31T13:33:36.291Z,0.57
2022-12-31T13:36:05.506Z,0.52
2022-12-31T13:38:34.643Z,0.50
2022-12-31T13:41:04.106Z,0.50
2022-12-31T13:43:51.097Z,0.82
2022-12-31T13:46:36.989Z,0.60
2022-12-31T13:49:05.511Z,0.60
2022-12-31T13:51:37.512Z,0.50
2022-12-31T13:54:06.509Z,0.50
2022-12-31T13:56:37.110Z,0.60
2022-12-31T13:59:03.461Z,0.50
2022-12-31T14:01:35.116Z,1.00
2022-12-31T14:04:04.752Z,0.68
2022-12-31T14:06:43.195Z,0.93
2022-12-31T14:09:14.736Z,0.80
2022-12-31T14:11:48.983Z,0.57
2022-12-31T14:14:20.825Z,1.10
2022-12-31T14:17:05.582Z,0.55
2022-12-31T14:19:41.123Z,0.70
2022-12-31T14:22:16.053Z,0.80
2022-12-31T14:24:47.691Z,0.60
2022-12-31T14:27:17.482Z,0.80
2022-12-31T14:29:46.937Z,1.05
2022-12-31T14:32:13.371Z,0.60
2022-12-31T14:35:00.297Z,0.55
2022-12-31T14:37:50.460Z,0.70
2022-12-31T14:40:22.460Z,0.80
2022-12-31T14:43:07.551Z,0.82
2022-12-31T14:45:52.037Z,0.70
2022-12-31T14:48:26.165Z,0.90
2022-12-31T14:50:52.714Z,0.68
2022-12-31T14:53:22.378Z,0.70
2022-12-31T14:55:57.242Z,0.80
2022-12-31T14:58:29.446Z,0.60
2022-12-31T15:01:00.737Z,0.95
2022-12-31T15:03:36.321Z,0.73
2022-12-31T15:06:05.322Z,0.70
2022-12-31T15:08:34.504Z,0.60
2022-12-31T15:11:03.934Z,1.05
2022-12-31T15:13:46.496Z,0.77
2022-12-31T15:16:22.337Z,0.80
2022-12-31T15:19:02.979Z,0.60
2022-12-31T15:21:49.578Z,1.10
2022-12-31T15:24:24.141Z,0.75
2022-12-31T15:26:52.395Z,0.60
2022-12-31T15:29:36.119Z,0.60
2022-12-31T15:32:03.832Z,1.13
2022-12-31T15:34:34.993Z,0.85
2022-12-31T15:37:03.225Z,0.85
2022-12-31T15:39:32.433Z,0.80
2022-12-31T15:44:50.773Z,0.63
2022-12-31T15:47:20.909Z,0.75
2022-12-31T15:49:47.741Z,1.00
2022-12-31T15:52:34.483Z,0.88
2022-12-31T15:55:03.936Z,0.50
2022-12-31T15:57:32.231Z,0.52
2022-12-31T15:59:59.696Z,0.70
2022-12-31T16:02:27.345Z,0.70
2022-12-31T16:04:54.998Z,0.80
2022-12-31T16:07:21.872Z,0.77
2022-12-31T16:09:51.095Z,0.90
2022-12-31T16:12:30.822Z,1.48
2022-12-31T16:14:59.767Z,0.85
2022-12-31T16:17:26.226Z,0.77
2022-12-31T16:19:52.729Z,0.75
2022-12-31T16:22:24.206Z,1.00
2022-12-31T16:27:43.836Z,0.93
2022-12-31T16:30:21.013Z,0.85
2022-12-31T16:32:48.461Z,0.80
2022-12-31T16:35:31.440Z,0.80
2022-12-31T16:38:24.150Z,1.58
2022-12-31T16:41:10.818Z,1.42
2022-12-31T16:43:37.206Z,1.45
2022-12-31T16:46:08.896Z,1.20
2022-12-31T16:48:35.416Z,1.00
2022-12-31T16:51:02.007Z,1.17
2022-12-31T16:53:30.506Z,0.70
2022-12-31T16:56:01.702Z,0.75
2022-12-31T16:58:32.899Z,1.10
2022-12-31T17:01:08.016Z,0.80
2022-12-31T17:03:35.501Z,1.00
2022-12-31T17:06:12.364Z,0.90
2022-12-31T17:08:40.651Z,0.90
2022-12-31T17:11:23.205Z,0.70
2022-12-31T17:14:13.807Z,1.05
2022-12-31T17:17:03.102Z,1.00
2022-12-31T17:19:36.378Z,0.88
2022-12-31T17:22:03.714Z,2.20
2022-12-31T17:24:30.312Z,0.77
2022-12-31T17:27:02.609Z,1.23
2022-12-31T17:29:28.950Z,1.00
2022-12-31T17:32:04.660Z,0.90
2022-12-31T17:37:18.255Z,0.82
2022-12-31T17:39:46.182Z,0.70
2022-12-31T17:42:13.710Z,1.73
2022-12-31T17:44:41.875Z,1.08
2022-12-31T17:47:11.680Z,1.30
2022-12-31T17:49:38.046Z,0.90
2022-12-31T17:52:09.201Z,0.85
2022-12-31T17:54:35.573Z,0.80
2022-12-31T17:57:01.944Z,0.80
2022-12-31T17:59:29.762Z,0.90
2022-12-31T18:02:05.451Z,0.70
2022-12-31T18:09:24.533Z,0.75
2022-12-31T18:11:51.928Z,0.98
2022-12-31T18:14:20.720Z,0.90
2022-12-31T18:16:48.160Z,0.90
2022-12-31T18:19:37.948Z,0.95
2022-12-31T18:22:01.977Z,0.85
2022-12-31T18:24:28.454Z,0.98
2022-12-31T18:26:55.227Z,0.80
2022-12-31T18:29:22.100Z,0.90
2022-12-31T18:31:49.218Z,1.00
2022-12-31T18:34:16.209Z,1.02
2022-12-31T18:36:42.561Z,0.98
2022-12-31T18:39:09.027Z,0.88
2022-12-31T18:41:40.019Z,0.80
2022-12-31T18:44:06.848Z,1.02
2022-12-31T18:46:33.267Z,1.05
2022-12-31T18:48:59.673Z,1.35
2022-12-31T18:51:31.788Z,1.42
2022-12-31T18:53:59.467Z,1.00
2022-12-31T18:56:25.865Z,1.60
2022-12-31T18:58:52.243Z,1.30
2022-12-31T19:01:18.604Z,1.00
2022-12-31T19:03:45.027Z,1.00
2022-12-31T19:06:11.372Z,1.88
2022-12-31T19:08:37.721Z,1.35
2022-12-31T19:11:04.151Z,1.10
2022-12-31T19:13:30.535Z,0.90
2022-12-31T19:15:58.638Z,0.90
2022-12-31T19:18:24.967Z,1.17
2022-12-31T19:20:51.692Z,1.00
2022-12-31T19:23:19.186Z,0.90
2022-12-31T19:25:46.595Z,0.90
2022-12-31T19:28:20.839Z,1.02
2022-12-31T19:30:47.327Z,1.00
2022-12-31T19:33:14.353Z,0.90
2022-12-31T19:35:41.658Z,1.25
2022-12-31T19:38:34.647Z,1.13
2022-12-31T19:41:01.473Z,1.00
2022-12-31T19:43:28.026Z,0.88
2022-12-31T19:45:54.478Z,0.88
2022-12-31T19:48:28.549Z,1.10
2022-12-31T19:50:56.789Z,0.68
2022-12-31T19:53:24.890Z,0.90
2022-12-31T19:55:51.887Z,1.05
2022-12-31T19:58:19.851Z,0.88
2022-12-31T20:00:54.604Z,0.90
2022-12-31T20:03:23.472Z,1.17
2022-12-31T20:05:49.932Z,1.10
2022-12-31T20:08:20.311Z,0.88
2022-12-31T20:10:46.765Z,0.80
2022-12-31T20:13:13.141Z,0.80
2022-12-31T20:15:39.604Z,0.98
2022-12-31T20:18:06.037Z,0.98
2022-12-31T20:20:32.475Z,0.90
2022-12-31T20:22:58.854Z,1.30
2022-12-31T20:25:25.682Z,1.20
2022-12-31T20:27:53.465Z,1.20
2022-12-31T20:30:20.920Z,0.90
2022-12-31T20:32:47.248Z,0.90
2022-12-31T20:35:13.595Z,1.02
2022-12-31T20:37:40.031Z,1.20
2022-12-31T20:40:07.153Z,1.00
2022-12-31T20:42:33.521Z,0.80
2022-12-31T20:44:59.871Z,1.00
2022-12-31T20:47:26.217Z,1.17
2022-12-31T20:50:10.891Z,0.93
2022-12-31T20:52:38.150Z,0.93
2022-12-31T20:55:04.743Z,1.10
2022-12-31T20:57:33.755Z,0.70
2022-12-31T21:00:00.477Z,1.00
2022-12-31T21:02:41.044Z,0.90
2022-12-31T21:05:08.628Z,1.35
2022-12-31T21:07:35.121Z,0.88
2022-12-31T21:10:01.512Z,0.90
2022-12-31T21:12:53.010Z,0.90
2022-12-31T21:15:20.120Z,0.98
2022-12-31T21:17:46.673Z,0.82
2022-12-31T21:20:13.042Z,0.80
2022-12-31T21:22:39.402Z,1.30
2022-12-31T21:25:06.330Z,1.00
2022-12-31T21:27:32.662Z,1.30
2022-12-31T21:30:18.389Z,1.00
2022-12-31T21:32:45.481Z,1.20
2022-12-31T21:38:03.025Z,1.10
2022-12-31T21:40:29.913Z,0.80
2022-12-31T21:42:56.439Z,0.90
2022-12-31T21:45:22.828Z,0.65
2022-12-31T21:48:07.861Z,0.88
2022-12-31T21:50:34.429Z,0.80
2022-12-31T21:53:00.798Z,1.00
2022-12-31T21:55:46.158Z,1.10
2022-12-31T21:58:25.784Z,1.00
2022-12-31T22:01:12.439Z,0.63
2022-12-31T22:03:39.281Z,0.93
2022-12-31T22:06:12.982Z,0.88
2022-12-31T22:08:43.372Z,0.80
2022-12-31T22:11:11.251Z,0.70
2022-12-31T22:13:37.729Z,1.05
2022-12-31T22:16:06.076Z,0.73
2022-12-31T22:18:39.041Z,0.70
2022-12-31T22:21:19.230Z,0.77
2022-12-31T22:23:52.253Z,1.20
2022-12-31T22:26:21.155Z,1.10
2022-12-31T22:28:47.734Z,0.88
2022-12-31T22:31:18.193Z,1.15
2022-12-31T22:33:45.046Z,1.00
2022-12-31T22:36:12.917Z,1.05
2022-12-31T22:38:39.358Z,0.90
2022-12-31T22:41:07.732Z,0.70
2022-12-31T22:43:34.605Z,0.90
2022-12-31T22:46:27.327Z,0.75
2022-12-31T22:48:56.420Z,0.63
2022-12-31T22:51:22.860Z,0.70
2022-12-31T22:53:49.303Z,0.80
2022-12-31T22:56:16.829Z,1.00
2022-12-31T22:58:43.638Z,0.88
2022-12-31T23:01:20.559Z,1.05
2022-12-31T23:03:47.826Z,12.80
2022-12-31T23:06:14.551Z,1.00
2022-12-31T23:08:41.000Z,1.00
2022-12-31T23:11:09.680Z,4.05
2022-12-31T23:13:56.306Z,1.20
2022-12-31T23:16:42.060Z,1.50
2022-12-31T23:19:27.120Z,2.50
2022-12-31T23:22:12.603Z,3.88
2022-12-31T23:24:39.447Z,4.18
2022-12-31T23:27:06.038Z,4.88
2022-12-31T23:29:32.525Z,5.30
2022-12-31T23:32:00.196Z,5.65
2022-12-31T23:34:26.600Z,5.60
2022-12-31T23:36:52.980Z,6.30
2022-12-31T23:39:19.413Z,5.75
2022-12-31T23:41:45.850Z,5.50
2022-12-31T23:44:12.436Z,4.32
2022-12-31T23:46:39.186Z,4.32
2022-12-31T23:49:05.765Z,4.80
2022-12-31T23:51:32.441Z,4.30
2022-12-31T23:53:58.874Z,4.32
2022-12-31T23:56:25.393Z,4.25
2022-12-31T23:58:55.435Z,4.45
